Terminal Aerodrome Forecast
Issued by NWS

Home | Current Version | Previous Version | Text Only | Print | Product List | Glossary On
Versions: 1 2 3 4 5 6 7 8 9 10 11 12 13
753
FTUS44 KTSA 132320
TAFMLC
TAF
KMLC 132320Z 1400/1424 13009KT P6SM SCT250
     FM140300 13010KT P6SM OVC050
     FM140900 16013KT P6SM OVC015
     FM141500 17006KT 4SM BR OVC007
     FM142100 17006KT P6SM OVC015=

USA.gov is the U.S. government's official web portal to all federal, state and local government web resources and services.